createdAt,value
2023-01-17T00:00:32.529Z,3.99
2023-01-17T00:01:32.460Z,3.92
2023-01-17T00:02:32.504Z,3.99
2023-01-17T00:03:32.562Z,3.92
2023-01-17T00:04:32.490Z,3.92
2023-01-17T00:05:32.502Z,3.94
2023-01-17T00:06:32.508Z,3.94
2023-01-17T00:07:32.531Z,3.91
2023-01-17T00:08:32.533Z,3.95
2023-01-17T00:09:32.536Z,3.84
2023-01-17T00:10:32.547Z,3.86
2023-01-17T00:11:32.556Z,3.85
2023-01-17T00:12:32.576Z,3.88
2023-01-17T00:13:32.590Z,3.85
2023-01-17T00:14:32.587Z,3.86
2023-01-17T00:15:32.600Z,3.76
2023-01-17T00:16:32.616Z,3.76
2023-01-17T00:17:32.615Z,3.86
2023-01-17T00:18:32.622Z,3.76
2023-01-17T00:19:32.639Z,3.78
2023-01-17T00:20:32.658Z,3.81
2023-01-17T00:21:32.651Z,3.88
2023-01-17T00:22:32.666Z,3.77
2023-01-17T00:23:32.681Z,3.84
2023-01-17T00:24:32.682Z,3.82
2023-01-17T00:25:32.691Z,3.81
2023-01-17T00:26:32.712Z,3.81
2023-01-17T00:27:32.709Z,3.81
2023-01-17T00:28:32.719Z,3.77
2023-01-17T00:29:32.730Z,3.71
2023-01-17T00:30:32.763Z,3.73
2023-01-17T00:31:32.787Z,3.74
2023-01-17T00:32:32.762Z,3.73
2023-01-17T00:33:32.775Z,3.63
2023-01-17T00:34:32.774Z,3.67
2023-01-17T00:35:32.795Z,3.61
2023-01-17T00:36:32.798Z,3.53
2023-01-17T00:37:32.804Z,3.56
2023-01-17T00:38:32.819Z,3.49
2023-01-17T00:39:32.830Z,3.48
2023-01-17T00:40:32.851Z,3.46
2023-01-17T00:41:32.844Z,3.40
2023-01-17T00:42:32.849Z,3.34
2023-01-17T00:43:32.859Z,3.45
2023-01-17T00:44:32.870Z,3.41
2023-01-17T00:45:32.886Z,3.27
2023-01-17T00:46:32.900Z,3.29
2023-01-17T00:47:32.896Z,3.36
2023-01-17T00:48:32.907Z,3.24
2023-01-17T00:49:32.948Z,3.26
2023-01-17T00:50:32.922Z,3.24
2023-01-17T00:51:32.934Z,3.16
2023-01-17T00:52:32.943Z,3.24
2023-01-17T00:53:32.951Z,3.18
2023-01-17T00:54:32.967Z,3.13
2023-01-17T00:55:32.968Z,3.08
2023-01-17T00:56:32.982Z,3.16
2023-01-17T00:57:32.989Z,3.11
2023-01-17T00:58:32.996Z,3.18
2023-01-17T00:59:33.008Z,3.15
2023-01-17T01:00:33.073Z,3.18
2023-01-17T01:01:33.135Z,3.13
2023-01-17T01:02:33.053Z,3.11
2023-01-17T01:03:33.047Z,3.13
2023-01-17T01:04:33.058Z,3.12
2023-01-17T01:05:33.060Z,3.08
2023-01-17T01:06:33.069Z,3.00
2023-01-17T01:07:33.077Z,3.12
2023-01-17T01:08:33.087Z,3.06
2023-01-17T01:09:33.102Z,3.08
2023-01-17T01:10:33.108Z,3.03
2023-01-17T01:11:33.128Z,3.06
2023-01-17T01:12:33.121Z,3.15
2023-01-17T01:13:33.132Z,3.13
2023-01-17T01:14:33.138Z,3.06
2023-01-17T01:15:33.148Z,3.16
2023-01-17T01:16:33.252Z,3.15
2023-01-17T01:17:33.168Z,3.11
2023-01-17T01:18:33.175Z,3.09
2023-01-17T01:19:33.185Z,3.05
2023-01-17T01:20:33.194Z,3.15
2023-01-17T01:21:33.205Z,3.08
2023-01-17T01:22:33.211Z,3.13
2023-01-17T01:23:33.220Z,3.05
2023-01-17T01:24:33.235Z,3.15
2023-01-17T01:25:33.244Z,3.16
2023-01-17T01:26:33.250Z,3.16
2023-01-17T01:27:33.258Z,3.12
2023-01-17T01:28:33.303Z,3.11
2023-01-17T01:29:33.279Z,3.01
2023-01-17T01:30:33.289Z,3.09
2023-01-17T01:31:33.327Z,3.05
2023-01-17T01:32:33.303Z,3.11
2023-01-17T01:33:33.311Z,3.11
2023-01-17T01:34:33.321Z,3.13
2023-01-17T01:35:33.347Z,3.08
2023-01-17T01:36:33.348Z,3.15
2023-01-17T01:37:33.349Z,3.13
2023-01-17T01:38:33.361Z,3.13
2023-01-17T01:39:33.370Z,3.18
2023-01-17T01:40:33.391Z,3.16
2023-01-17T01:41:33.387Z,3.22
2023-01-17T01:42:33.393Z,3.21
2023-01-17T01:43:33.402Z,3.26
2023-01-17T01:44:33.411Z,3.19
2023-01-17T01:45:33.459Z,3.15
2023-01-17T01:46:33.430Z,3.26
2023-01-17T01:47:33.443Z,3.22
2023-01-17T01:48:33.448Z,3.22
2023-01-17T01:49:33.457Z,3.16
2023-01-17T01:50:33.467Z,3.30
2023-01-17T01:51:33.479Z,3.24
2023-01-17T01:52:33.484Z,3.21
2023-01-17T01:53:33.491Z,3.31
2023-01-17T01:54:33.505Z,3.27
2023-01-17T01:55:33.513Z,3.31
2023-01-17T01:56:33.528Z,3.30
2023-01-17T01:57:33.538Z,3.29
2023-01-17T01:58:33.537Z,3.31
2023-01-17T01:59:33.557Z,3.29
2023-01-17T02:00:33.566Z,3.33
2023-01-17T02:01:33.637Z,3.31
2023-01-17T02:02:33.575Z,3.18
2023-01-17T02:03:33.622Z,3.21
2023-01-17T02:04:33.594Z,3.31
2023-01-17T02:05:33.613Z,3.34
2023-01-17T02:06:33.611Z,3.30
2023-01-17T02:07:33.632Z,3.27
2023-01-17T02:08:33.630Z,3.26
2023-01-17T02:09:33.673Z,3.16
2023-01-17T02:10:33.649Z,3.19
2023-01-17T02:11:33.661Z,3.31
2023-01-17T02:12:33.667Z,3.26
2023-01-17T02:13:33.674Z,3.24
2023-01-17T02:14:33.685Z,3.22
2023-01-17T02:15:33.704Z,3.27
2023-01-17T02:16:33.829Z,3.27
2023-01-17T02:17:33.713Z,3.16
2023-01-17T02:18:33.727Z,3.21
2023-01-17T02:19:33.730Z,3.11
2023-01-17T02:20:33.740Z,3.13
2023-01-17T02:21:33.750Z,3.12
2023-01-17T02:22:33.762Z,3.13
2023-01-17T02:23:33.766Z,3.16
2023-01-17T02:24:33.780Z,3.15
2023-01-17T02:25:33.785Z,3.21
2023-01-17T02:26:33.794Z,3.18
2023-01-17T02:27:33.804Z,3.18
2023-01-17T02:28:33.813Z,3.26
2023-01-17T02:29:33.823Z,3.18
2023-01-17T02:30:33.832Z,3.19
2023-01-17T02:31:33.868Z,3.19
2023-01-17T02:32:33.851Z,3.26
2023-01-17T02:33:33.868Z,3.27
2023-01-17T02:34:33.867Z,3.19
2023-01-17T02:35:33.885Z,3.27
2023-01-17T02:36:33.889Z,3.24
2023-01-17T02:37:33.902Z,3.29
2023-01-17T02:38:33.909Z,3.31
2023-01-17T02:39:33.914Z,3.27
2023-01-17T02:40:33.930Z,3.24
2023-01-17T02:41:33.938Z,3.41
2023-01-17T02:42:33.942Z,3.43
2023-01-17T02:43:33.979Z,3.43
2023-01-17T02:44:33.960Z,3.41
2023-01-17T02:45:34.037Z,3.41
2023-01-17T02:46:33.978Z,3.49
2023-01-17T02:47:33.988Z,3.46
2023-01-17T02:48:34.002Z,3.45
2023-01-17T02:49:34.007Z,3.48
2023-01-17T02:50:34.015Z,3.55
2023-01-17T02:51:34.028Z,3.46
2023-01-17T02:52:34.038Z,3.46
2023-01-17T02:53:34.045Z,3.52
2023-01-17T02:54:34.055Z,3.59
2023-01-17T02:55:34.068Z,3.46
2023-01-17T02:56:34.076Z,3.53
2023-01-17T02:57:34.100Z,3.64
2023-01-17T02:58:34.092Z,3.64
2023-01-17T02:59:34.125Z,3.67
2023-01-17T03:00:34.107Z,3.61
2023-01-17T03:01:34.181Z,3.67
2023-01-17T03:02:34.185Z,3.71
2023-01-17T03:03:34.137Z,3.74
2023-01-17T03:04:34.147Z,3.76
2023-01-17T03:05:34.164Z,3.68
2023-01-17T03:06:34.166Z,3.78
2023-01-17T03:07:34.176Z,3.76
2023-01-17T03:08:34.187Z,3.78
2023-01-17T03:09:34.196Z,3.74
2023-01-17T03:10:34.208Z,3.85
2023-01-17T03:11:34.215Z,3.78
2023-01-17T03:12:34.221Z,3.85
2023-01-17T03:13:34.231Z,3.88
2023-01-17T03:14:34.249Z,3.92
2023-01-17T03:15:34.255Z,3.91
2023-01-17T03:16:34.313Z,3.82
2023-01-17T03:17:34.271Z,3.86
2023-01-17T03:18:34.278Z,3.84
2023-01-17T03:19:34.288Z,3.96
2023-01-17T03:20:34.300Z,3.88
2023-01-17T03:21:34.310Z,3.92
2023-01-17T03:22:34.316Z,4.03
2023-01-17T03:23:34.325Z,4.03
2023-01-17T03:24:34.349Z,4.00
2023-01-17T03:25:34.377Z,4.02
2023-01-17T03:26:34.355Z,4.03
2023-01-17T03:27:34.368Z,4.06
2023-01-17T03:28:34.377Z,4.09
2023-01-17T03:29:34.386Z,4.09
2023-01-17T03:30:34.427Z,4.03
2023-01-17T03:31:34.403Z,4.06
2023-01-17T03:32:34.412Z,4.09
2023-01-17T03:33:34.428Z,4.04
2023-01-17T03:34:34.431Z,4.04
2023-01-17T03:35:34.443Z,4.10
2023-01-17T03:36:34.450Z,4.16
2023-01-17T03:37:34.461Z,4.09
2023-01-17T03:38:34.470Z,4.14
2023-01-17T03:39:34.486Z,4.18
2023-01-17T03:40:34.499Z,4.18
2023-01-17T03:41:34.508Z,4.13
2023-01-17T03:42:34.517Z,4.18
2023-01-17T03:43:34.528Z,4.28
2023-01-17T03:44:34.530Z,4.22
2023-01-17T03:45:34.588Z,4.22
2023-01-17T03:46:34.548Z,4.22
2023-01-17T03:47:34.563Z,4.22
2023-01-17T03:48:34.578Z,4.30
2023-01-17T03:49:34.586Z,4.25
2023-01-17T03:50:34.587Z,4.30
2023-01-17T03:51:34.598Z,4.36
2023-01-17T03:52:34.619Z,4.40
2023-01-17T03:53:34.618Z,4.27
2023-01-17T03:54:34.626Z,4.32
2023-01-17T03:55:34.641Z,4.34
2023-01-17T03:56:34.645Z,4.36
2023-01-17T03:57:34.659Z,4.36
2023-01-17T03:58:34.698Z,4.39
2023-01-17T03:59:34.687Z,4.32
2023-01-17T04:00:34.690Z,4.31
2023-01-17T04:01:34.798Z,4.39
2023-01-17T04:02:34.744Z,4.36
2023-01-17T04:03:34.717Z,4.38
2023-01-17T04:04:34.727Z,4.34
2023-01-17T04:05:34.736Z,4.42
2023-01-17T04:06:34.749Z,4.32
2023-01-17T04:07:34.762Z,4.32
2023-01-17T04:08:34.767Z,4.39
2023-01-17T04:09:34.775Z,4.42
2023-01-17T04:10:34.784Z,4.40
2023-01-17T04:11:34.795Z,4.36
2023-01-17T04:12:34.803Z,4.43
2023-01-17T04:13:34.820Z,4.43
2023-01-17T04:14:34.826Z,4.48
2023-01-17T04:15:34.837Z,4.46
2023-01-17T04:16:34.928Z,4.50
2023-01-17T04:17:34.853Z,4.53
2023-01-17T04:18:34.864Z,4.52
2023-01-17T04:19:34.882Z,4.58
2023-01-17T04:20:34.888Z,4.50
2023-01-17T04:21:34.897Z,4.50
2023-01-17T04:22:34.905Z,4.48
2023-01-17T04:23:34.913Z,4.60
2023-01-17T04:24:34.925Z,4.58
2023-01-17T04:25:34.933Z,4.52
2023-01-17T04:26:34.944Z,4.48
2023-01-17T04:27:34.953Z,4.57
2023-01-17T04:28:34.964Z,4.46
2023-01-17T04:29:34.972Z,4.46
2023-01-17T04:30:35.018Z,4.46
2023-01-17T04:31:35.008Z,4.46
2023-01-17T04:32:35.003Z,4.46
2023-01-17T04:33:35.011Z,4.49
2023-01-17T04:34:35.020Z,4.45
2023-01-17T04:35:35.050Z,4.43
2023-01-17T04:36:35.052Z,4.49
2023-01-17T04:37:35.051Z,4.45
2023-01-17T04:38:35.067Z,4.43
2023-01-17T04:39:35.071Z,4.40
2023-01-17T04:40:35.086Z,4.42
2023-01-17T04:41:35.093Z,4.43
2023-01-17T04:42:35.102Z,4.43
2023-01-17T04:43:35.130Z,4.42
2023-01-17T04:44:35.120Z,4.42
2023-01-17T04:45:35.133Z,4.45
2023-01-17T04:46:35.143Z,4.46
2023-01-17T04:47:35.182Z,4.49
2023-01-17T04:48:35.159Z,4.46
2023-01-17T04:49:35.205Z,4.45
2023-01-17T04:50:35.186Z,4.43
2023-01-17T04:51:35.193Z,4.46
2023-01-17T04:52:35.208Z,4.43
2023-01-17T04:53:35.229Z,4.48
2023-01-17T04:54:35.222Z,4.46
2023-01-17T04:55:35.231Z,4.46
2023-01-17T04:56:35.240Z,4.45
2023-01-17T04:57:35.264Z,4.49
2023-01-17T04:58:35.257Z,4.45
2023-01-17T04:59:35.269Z,4.45
2023-01-17T05:00:35.276Z,4.43
2023-01-17T05:01:35.428Z,4.42
2023-01-17T05:02:35.329Z,4.43
2023-01-17T05:03:35.313Z,4.48
2023-01-17T05:04:35.316Z,4.48
2023-01-17T05:05:35.328Z,4.52
2023-01-17T05:06:35.338Z,4.45
2023-01-17T05:07:35.930Z,4.48
2023-01-17T05:08:35.358Z,4.43
2023-01-17T05:09:35.366Z,4.52
2023-01-17T05:10:35.374Z,4.49
2023-01-17T05:11:35.387Z,4.49
2023-01-17T05:12:35.396Z,4.43
2023-01-17T05:13:35.406Z,4.48
2023-01-17T05:14:35.413Z,4.40
2023-01-17T05:15:35.448Z,4.49
2023-01-17T05:16:35.437Z,4.50
2023-01-17T05:17:35.449Z,4.48
2023-01-17T05:18:35.451Z,4.45
2023-01-17T05:19:35.465Z,4.45
2023-01-17T05:20:35.473Z,4.43
2023-01-17T05:21:35.482Z,4.46
2023-01-17T05:22:35.492Z,4.49
2023-01-17T05:23:35.501Z,4.43
2023-01-17T05:24:35.513Z,4.40
2023-01-17T05:25:35.520Z,4.39
2023-01-17T05:26:35.530Z,4.43
2023-01-17T05:27:35.541Z,4.40
2023-01-17T05:28:35.552Z,4.45
2023-01-17T05:29:35.559Z,4.42
2023-01-17T05:30:35.576Z,4.45
2023-01-17T05:31:35.580Z,4.40
2023-01-17T05:32:35.588Z,4.43
2023-01-17T05:33:35.604Z,4.42
2023-01-17T05:34:35.606Z,4.40
2023-01-17T05:35:35.621Z,4.38
2023-01-17T05:36:35.628Z,4.39
2023-01-17T05:37:35.636Z,4.36
2023-01-17T05:38:35.651Z,4.43
2023-01-17T05:39:35.658Z,4.40
2023-01-17T05:40:35.666Z,4.43
2023-01-17T05:41:35.676Z,4.45
2023-01-17T05:42:35.686Z,4.46
2023-01-17T05:43:35.695Z,4.42
2023-01-17T05:44:35.706Z,4.39
2023-01-17T05:45:35.722Z,4.48
2023-01-17T05:46:35.787Z,4.48
2023-01-17T05:47:35.734Z,4.46
2023-01-17T05:48:35.742Z,4.43
2023-01-17T05:49:35.755Z,4.42
2023-01-17T05:50:35.791Z,4.46
2023-01-17T05:51:35.774Z,4.50
2023-01-17T05:52:35.783Z,4.49
2023-01-17T05:53:35.796Z,4.45
2023-01-17T05:54:35.805Z,4.50
2023-01-17T05:55:35.819Z,4.48
2023-01-17T05:56:35.863Z,4.48
2023-01-17T05:57:35.835Z,4.52
2023-01-17T05:58:35.842Z,4.43
2023-01-17T05:59:37.274Z,4.48
2023-01-17T06:00:35.864Z,4.57
2023-01-17T06:01:35.871Z,4.52
2023-01-17T06:02:35.941Z,4.53
2023-01-17T06:03:35.897Z,4.46
2023-01-17T06:04:35.933Z,4.46
2023-01-17T06:05:35.916Z,4.50
2023-01-17T06:06:35.929Z,4.49
2023-01-17T06:07:35.927Z,4.48
2023-01-17T06:08:35.939Z,4.57
2023-01-17T06:09:35.951Z,4.49
2023-01-17T06:10:35.957Z,4.53
2023-01-17T06:11:35.967Z,4.58
2023-01-17T06:12:35.981Z,4.50
2023-01-17T06:13:35.991Z,4.49
2023-01-17T06:14:35.996Z,4.48
2023-01-17T06:15:36.006Z,4.48
2023-01-17T06:16:36.019Z,4.49
2023-01-17T06:17:36.041Z,4.56
2023-01-17T06:18:36.061Z,4.52
2023-01-17T06:19:36.047Z,4.53
2023-01-17T06:20:36.057Z,4.52
2023-01-17T06:21:36.083Z,4.49
2023-01-17T06:22:36.084Z,4.48
2023-01-17T06:23:36.084Z,4.52
2023-01-17T06:24:36.102Z,4.46
2023-01-17T06:25:36.105Z,4.58
2023-01-17T06:26:36.114Z,4.45
2023-01-17T06:27:36.123Z,4.49
2023-01-17T06:28:36.134Z,4.48
2023-01-17T06:29:36.144Z,4.50
2023-01-17T06:30:36.152Z,4.42
2023-01-17T06:31:36.252Z,4.43
2023-01-17T06:32:36.172Z,4.48
2023-01-17T06:33:36.199Z,4.43
2023-01-17T06:34:36.194Z,4.49
2023-01-17T06:35:36.201Z,4.48
2023-01-17T06:36:36.211Z,4.46
2023-01-17T06:37:36.221Z,4.45
2023-01-17T06:38:36.234Z,4.49
2023-01-17T06:39:36.243Z,4.45
2023-01-17T06:40:36.249Z,4.46
2023-01-17T06:41:36.261Z,4.40
2023-01-17T06:42:36.270Z,4.46
2023-01-17T06:43:36.293Z,4.46
2023-01-17T06:44:36.299Z,4.43
2023-01-17T06:45:36.314Z,4.46
2023-01-17T06:46:36.340Z,4.46
2023-01-17T06:47:36.319Z,4.45
2023-01-17T06:48:36.327Z,4.43
2023-01-17T06:49:36.340Z,4.43
2023-01-17T06:50:36.360Z,4.45
2023-01-17T06:51:36.359Z,4.46
2023-01-17T06:52:36.373Z,4.46
2023-01-17T06:53:36.379Z,4.45
2023-01-17T06:54:36.388Z,4.42
2023-01-17T06:55:36.397Z,4.43
2023-01-17T06:56:36.422Z,4.42
2023-01-17T06:57:36.430Z,4.40
2023-01-17T06:58:36.429Z,4.34
2023-01-17T06:59:36.436Z,4.34
2023-01-17T07:00:38.206Z,4.32
2023-01-17T07:01:36.589Z,4.39
2023-01-17T07:02:36.467Z,4.28
2023-01-17T07:03:36.523Z,4.38
2023-01-17T07:04:36.499Z,4.31
2023-01-17T07:05:36.522Z,4.32
2023-01-17T07:06:36.541Z,4.31
2023-01-17T07:07:36.531Z,4.32
2023-01-17T07:08:36.523Z,4.34
2023-01-17T07:09:36.532Z,4.31
2023-01-17T07:10:36.544Z,4.30
2023-01-17T07:11:36.552Z,4.34
2023-01-17T07:12:36.561Z,4.30
2023-01-17T07:13:36.616Z,4.31
2023-01-17T07:14:36.583Z,4.30
2023-01-17T07:15:36.590Z,4.28
2023-01-17T07:16:36.606Z,4.34
2023-01-17T07:17:36.626Z,4.40
2023-01-17T07:18:36.618Z,4.36
2023-01-17T07:19:36.630Z,4.34
2023-01-17T07:20:36.639Z,4.31
2023-01-17T07:21:36.648Z,4.27
2023-01-17T07:22:36.662Z,4.36
2023-01-17T07:23:36.681Z,4.42
2023-01-17T07:24:36.683Z,4.36
2023-01-17T07:25:36.711Z,4.36
2023-01-17T07:26:36.703Z,4.31
2023-01-17T07:27:36.711Z,4.32
2023-01-17T07:28:36.717Z,4.30
2023-01-17T07:29:36.725Z,4.34
2023-01-17T07:30:36.767Z,4.32
2023-01-17T07:31:36.828Z,4.32
2023-01-17T07:32:36.756Z,4.34
2023-01-17T07:33:36.769Z,4.32
2023-01-17T07:34:36.779Z,4.32
2023-01-17T07:35:36.781Z,4.34
2023-01-17T07:36:36.798Z,4.30
2023-01-17T07:37:36.804Z,4.39
2023-01-17T07:38:36.811Z,4.21
2023-01-17T07:39:36.823Z,4.34
2023-01-17T07:40:41.776Z,4.31
2023-01-17T07:41:36.842Z,4.32
2023-01-17T07:42:36.852Z,4.32
2023-01-17T07:43:36.863Z,4.28
2023-01-17T07:44:36.869Z,4.36
2023-01-17T07:45:36.885Z,4.30
2023-01-17T07:46:36.900Z,4.16
2023-01-17T07:47:36.900Z,4.22
2023-01-17T07:48:36.908Z,4.25
2023-01-17T07:49:36.921Z,4.31
2023-01-17T07:50:36.927Z,4.38
2023-01-17T07:51:36.944Z,4.31
2023-01-17T07:52:36.948Z,4.30
2023-01-17T07:53:36.965Z,4.36
2023-01-17T07:54:36.968Z,4.32
2023-01-17T07:55:36.976Z,4.38
2023-01-17T07:56:36.991Z,4.30
2023-01-17T07:57:36.996Z,4.36
2023-01-17T07:58:37.005Z,4.32
2023-01-17T07:59:37.047Z,4.34
2023-01-17T08:00:37.046Z,4.36
2023-01-17T08:01:37.224Z,4.36
2023-01-17T08:02:37.076Z,4.40
2023-01-17T08:03:37.156Z,4.22
2023-01-17T08:04:37.074Z,4.38
2023-01-17T08:05:37.085Z,4.31
2023-01-17T08:06:37.091Z,4.36
2023-01-17T08:07:37.106Z,4.38
2023-01-17T08:08:37.103Z,4.38
2023-01-17T08:09:37.127Z,4.40
2023-01-17T08:10:37.125Z,4.40
2023-01-17T08:11:37.128Z,4.39
2023-01-17T08:12:37.143Z,4.38
2023-01-17T08:13:37.149Z,4.46
2023-01-17T08:14:37.166Z,4.48
2023-01-17T08:15:37.175Z,4.48
2023-01-17T08:16:37.216Z,4.56
2023-01-17T08:17:37.193Z,4.53
2023-01-17T08:18:37.200Z,4.46
2023-01-17T08:19:37.213Z,4.48
2023-01-17T08:20:37.221Z,4.49
2023-01-17T08:21:37.230Z,4.60
2023-01-17T08:22:37.241Z,4.61
2023-01-17T08:23:37.250Z,4.63
2023-01-17T08:24:37.259Z,4.60
2023-01-17T08:25:37.268Z,4.60
2023-01-17T08:26:37.277Z,4.63
2023-01-17T08:27:37.289Z,4.60
2023-01-17T08:28:37.304Z,4.76
2023-01-17T08:29:37.317Z,4.66
2023-01-17T08:30:37.322Z,4.74
2023-01-17T08:31:37.381Z,4.67
2023-01-17T08:32:37.338Z,4.78
2023-01-17T08:33:37.364Z,4.76
2023-01-17T08:34:37.361Z,4.74
2023-01-17T08:35:37.370Z,4.75
2023-01-17T08:36:37.381Z,4.79
2023-01-17T08:37:37.401Z,4.89
2023-01-17T08:38:37.402Z,4.84
2023-01-17T08:39:37.410Z,4.83
2023-01-17T08:40:37.424Z,4.90
2023-01-17T08:41:37.438Z,4.90
2023-01-17T08:42:37.443Z,4.90
2023-01-17T08:43:37.456Z,4.89
2023-01-17T08:44:37.483Z,4.94
2023-01-17T08:45:37.490Z,4.98
2023-01-17T08:46:37.484Z,5.07
2023-01-17T08:47:37.491Z,5.02
2023-01-17T08:48:37.503Z,5.05
2023-01-17T08:49:37.511Z,5.05
2023-01-17T08:50:37.520Z,5.02
2023-01-17T08:51:37.533Z,5.07
2023-01-17T08:52:37.563Z,5.01
2023-01-17T08:53:37.602Z,5.12
2023-01-17T08:54:37.576Z,5.07
2023-01-17T08:55:37.600Z,5.12
2023-01-17T08:56:37.614Z,5.05
2023-01-17T08:57:37.610Z,5.16
2023-01-17T08:58:37.608Z,5.10
2023-01-17T08:59:37.634Z,5.12
2023-01-17T09:00:37.626Z,5.19
2023-01-17T09:01:37.744Z,5.19
2023-01-17T09:02:37.657Z,5.19
2023-01-17T09:03:39.485Z,5.20
2023-01-17T09:04:37.717Z,5.20
2023-01-17T09:05:37.680Z,5.22
2023-01-17T09:06:37.691Z,5.25
2023-01-17T09:07:37.709Z,5.20
2023-01-17T09:08:37.715Z,5.19
2023-01-17T09:09:37.723Z,5.29
2023-01-17T09:10:37.736Z,5.22
2023-01-17T09:11:37.742Z,5.22
2023-01-17T09:12:37.753Z,5.22
2023-01-17T09:13:37.774Z,5.20
2023-01-17T09:14:37.790Z,5.20
2023-01-17T09:15:37.782Z,5.16
2023-01-17T09:16:37.834Z,5.19
2023-01-17T09:17:37.805Z,5.16
2023-01-17T09:18:37.818Z,5.15
2023-01-17T09:19:37.825Z,5.13
2023-01-17T09:20:37.839Z,5.02
2023-01-17T09:21:37.846Z,5.18
2023-01-17T09:22:37.867Z,5.19
2023-01-17T09:23:37.878Z,5.25
2023-01-17T09:24:37.880Z,5.26
2023-01-17T09:25:37.889Z,5.33
2023-01-17T09:26:37.900Z,5.31
2023-01-17T09:27:37.915Z,5.37
2023-01-17T09:28:37.928Z,5.40
2023-01-17T09:29:37.936Z,5.43
2023-01-17T09:30:37.993Z,5.43
2023-01-17T09:31:37.955Z,5.38
2023-01-17T09:32:37.963Z,5.46
2023-01-17T09:33:37.985Z,5.46
2023-01-17T09:34:37.983Z,5.51
2023-01-17T09:35:37.997Z,5.55
2023-01-17T09:36:38.016Z,5.54
2023-01-17T09:37:38.034Z,5.44
2023-01-17T09:38:38.033Z,5.58
2023-01-17T09:39:38.040Z,5.52
2023-01-17T09:40:38.050Z,5.54
2023-01-17T09:41:38.065Z,5.51
2023-01-17T09:42:38.074Z,5.58
2023-01-17T09:43:39.520Z,5.61
2023-01-17T09:44:38.100Z,5.47
2023-01-17T09:45:38.147Z,5.46
2023-01-17T09:46:38.118Z,5.46
2023-01-17T09:47:38.132Z,5.61
2023-01-17T09:48:38.138Z,5.58
2023-01-17T09:49:38.149Z,5.55
2023-01-17T09:50:38.154Z,5.59
2023-01-17T09:51:38.176Z,5.64
2023-01-17T09:52:38.185Z,5.55
2023-01-17T09:53:38.190Z,5.58
2023-01-17T09:54:38.206Z,5.61
2023-01-17T09:55:38.226Z,5.58
2023-01-17T09:56:38.224Z,5.61
2023-01-17T09:57:38.275Z,5.58
2023-01-17T09:58:38.245Z,5.54
2023-01-17T09:59:38.257Z,5.54
2023-01-17T10:00:38.265Z,5.59
2023-01-17T10:01:38.446Z,5.56
2023-01-17T10:02:38.567Z,5.61
2023-01-17T10:03:38.357Z,5.65
2023-01-17T10:04:38.335Z,5.74
2023-01-17T10:05:38.321Z,5.74
2023-01-17T10:06:38.333Z,5.73
2023-01-17T10:07:38.347Z,5.61
2023-01-17T10:08:38.363Z,5.62
2023-01-17T10:09:38.367Z,5.67
2023-01-17T10:10:38.375Z,5.58
2023-01-17T10:11:38.384Z,5.72
2023-01-17T10:12:38.400Z,5.77
2023-01-17T10:13:38.407Z,5.65
2023-01-17T10:14:38.419Z,5.67
2023-01-17T10:15:38.435Z,5.65
2023-01-17T10:16:38.478Z,5.64
2023-01-17T10:17:38.451Z,5.56
2023-01-17T10:18:38.461Z,5.62
2023-01-17T10:19:38.471Z,5.69
2023-01-17T10:20:38.482Z,5.59
2023-01-17T10:21:38.504Z,5.59
2023-01-17T10:22:38.551Z,5.70
2023-01-17T10:23:38.538Z,5.64
2023-01-17T10:24:38.538Z,5.76
2023-01-17T10:25:38.539Z,5.67
2023-01-17T10:26:38.561Z,5.73
2023-01-17T10:27:38.563Z,5.69
2023-01-17T10:28:38.579Z,5.69
2023-01-17T10:29:38.580Z,5.62
2023-01-17T10:30:38.631Z,5.62
2023-01-17T10:31:38.605Z,5.65
2023-01-17T10:32:38.628Z,5.65
2023-01-17T10:33:38.635Z,5.59
2023-01-17T10:34:38.666Z,5.47
2023-01-17T10:35:38.657Z,5.56
2023-01-17T10:36:38.684Z,5.58
2023-01-17T10:37:38.668Z,5.58
2023-01-17T10:38:38.694Z,5.62
2023-01-17T10:39:38.687Z,5.55
2023-01-17T10:40:38.699Z,5.56
2023-01-17T10:41:38.718Z,5.56
2023-01-17T10:42:38.720Z,5.56
2023-01-17T10:43:38.734Z,5.54
2023-01-17T10:44:38.772Z,5.59
2023-01-17T10:45:38.757Z,5.49
2023-01-17T10:46:38.772Z,5.51
2023-01-17T10:47:38.776Z,5.61
2023-01-17T10:48:38.832Z,5.65
2023-01-17T10:49:38.813Z,5.58
2023-01-17T10:50:38.808Z,5.58
2023-01-17T10:51:38.816Z,5.59
2023-01-17T10:52:38.835Z,5.46
2023-01-17T10:53:38.842Z,5.41
2023-01-17T10:54:38.859Z,5.47
2023-01-17T10:55:38.871Z,5.54
2023-01-17T10:56:38.875Z,5.59
2023-01-17T10:57:38.889Z,5.44
2023-01-17T10:58:38.909Z,5.46
2023-01-17T10:59:38.928Z,5.40
2023-01-17T11:00:38.928Z,5.40
2023-01-17T11:01:39.061Z,5.36
2023-01-17T11:02:38.974Z,5.37
2023-01-17T11:03:38.949Z,5.29
2023-01-17T11:04:38.991Z,5.25
2023-01-17T11:05:38.983Z,5.28
2023-01-17T11:06:53.173Z,5.31
2023-01-17T11:07:40.094Z,5.16
2023-01-17T11:08:39.006Z,5.22
2023-01-17T11:09:39.027Z,5.18
2023-01-17T11:10:39.025Z,5.20
2023-01-17T11:11:39.037Z,5.13
2023-01-17T11:12:39.047Z,5.19
2023-01-17T11:13:39.072Z,5.18
2023-01-17T11:14:39.071Z,5.13
2023-01-17T11:15:39.111Z,5.05
2023-01-17T11:16:39.091Z,5.08
2023-01-17T11:17:39.104Z,5.13
2023-01-17T11:18:39.112Z,4.98
2023-01-17T11:19:39.123Z,5.07
2023-01-17T11:20:39.133Z,4.95
2023-01-17T11:21:39.142Z,4.92
2023-01-17T11:22:39.155Z,4.87
2023-01-17T11:23:39.165Z,4.84
2023-01-17T11:24:39.180Z,4.82
2023-01-17T11:25:39.183Z,4.79
2023-01-17T11:26:39.194Z,4.74
2023-01-17T11:27:39.204Z,4.58
2023-01-17T11:28:39.217Z,4.57
2023-01-17T11:29:39.223Z,4.57
2023-01-17T11:30:39.305Z,4.52
2023-01-17T11:31:39.245Z,4.45
2023-01-17T11:32:39.261Z,4.38
2023-01-17T11:33:39.266Z,4.38
2023-01-17T11:34:39.284Z,4.40
2023-01-17T11:35:39.292Z,4.31
2023-01-17T11:36:39.298Z,4.38
2023-01-17T11:37:39.306Z,4.34
2023-01-17T11:38:39.313Z,4.28
2023-01-17T11:39:39.326Z,4.27
2023-01-17T11:40:39.342Z,4.25
2023-01-17T11:41:39.348Z,4.30
2023-01-17T11:42:39.355Z,4.32
2023-01-17T11:43:39.367Z,4.21
2023-01-17T11:44:39.378Z,4.31
2023-01-17T11:45:39.399Z,4.30
2023-01-17T11:46:39.526Z,4.27
2023-01-17T11:47:39.406Z,4.30
2023-01-17T11:48:39.418Z,4.30
2023-01-17T11:49:39.428Z,4.22
2023-01-17T11:50:39.434Z,4.22
2023-01-17T11:51:39.445Z,4.24
2023-01-17T11:52:39.460Z,4.25
2023-01-17T11:53:39.469Z,4.22
2023-01-17T11:54:39.511Z,4.20
2023-01-17T11:55:39.491Z,4.24
2023-01-17T11:56:39.495Z,4.20
2023-01-17T11:57:39.524Z,4.18
2023-01-17T11:58:39.521Z,4.27
2023-01-17T11:59:39.526Z,4.24
2023-01-17T12:00:39.538Z,4.24
2023-01-17T12:01:39.546Z,4.21
2023-01-17T12:02:39.559Z,4.22
2023-01-17T12:03:39.598Z,4.22
2023-01-17T12:04:39.634Z,4.25
2023-01-17T12:05:39.585Z,4.27
2023-01-17T12:06:56.175Z,4.27
2023-01-17T12:07:39.608Z,4.36
2023-01-17T12:08:39.628Z,4.30
2023-01-17T12:09:39.626Z,4.34
2023-01-17T12:10:39.639Z,4.39
2023-01-17T12:11:39.648Z,4.39
2023-01-17T12:12:39.660Z,4.48
2023-01-17T12:13:39.675Z,4.46
2023-01-17T12:14:39.679Z,4.49
2023-01-17T12:15:39.739Z,4.50
2023-01-17T12:16:39.699Z,4.52
2023-01-17T12:17:39.718Z,4.49
2023-01-17T12:18:39.733Z,4.52
2023-01-17T12:19:39.738Z,4.50
2023-01-17T12:20:39.742Z,4.61
2023-01-17T12:21:39.778Z,4.61
2023-01-17T12:22:39.762Z,4.63
2023-01-17T12:23:39.775Z,4.58
2023-01-17T12:24:39.787Z,4.71
2023-01-17T12:25:39.793Z,4.76
2023-01-17T12:26:39.804Z,4.74
2023-01-17T12:27:41.048Z,4.75
2023-01-17T12:28:39.830Z,4.86
2023-01-17T12:29:39.839Z,4.89
2023-01-17T12:30:39.850Z,4.86
2023-01-17T12:31:39.881Z,4.86
2023-01-17T12:32:39.905Z,4.89
2023-01-17T12:33:39.890Z,4.87
2023-01-17T12:34:39.898Z,4.97
2023-01-17T12:35:39.903Z,4.95
2023-01-17T12:36:39.926Z,4.95
2023-01-17T12:37:39.925Z,5.05
2023-01-17T12:38:39.932Z,4.95
2023-01-17T12:39:39.945Z,5.00
2023-01-17T12:40:39.962Z,5.12
2023-01-17T12:41:39.968Z,5.16
2023-01-17T12:42:39.979Z,5.15
2023-01-17T12:43:39.995Z,5.25
2023-01-17T12:44:39.999Z,5.22
2023-01-17T12:45:40.008Z,5.33
2023-01-17T12:46:40.069Z,5.36
2023-01-17T12:47:40.034Z,5.33
2023-01-17T12:48:40.046Z,5.40
2023-01-17T12:49:40.054Z,5.33
2023-01-17T12:50:40.065Z,5.36
2023-01-17T12:51:40.080Z,5.31
2023-01-17T12:52:40.096Z,5.34
2023-01-17T12:53:40.099Z,5.22
2023-01-17T12:54:40.128Z,5.15
2023-01-17T12:55:40.124Z,5.16
2023-01-17T12:56:40.136Z,5.16
2023-01-17T12:57:40.141Z,5.16
2023-01-17T12:58:40.153Z,5.15
2023-01-17T12:59:40.168Z,5.16
2023-01-17T13:00:40.204Z,5.15
2023-01-17T13:01:40.360Z,5.10
2023-01-17T13:02:40.198Z,5.00
2023-01-17T13:03:40.223Z,5.05
2023-01-17T13:04:57.076Z,5.04
2023-01-17T13:05:40.231Z,5.05
2023-01-17T13:06:40.242Z,5.00
2023-01-17T13:07:40.252Z,4.98
2023-01-17T13:08:40.268Z,5.08
2023-01-17T13:09:40.275Z,5.01
2023-01-17T13:10:40.285Z,4.98
2023-01-17T13:11:40.307Z,5.01
2023-01-17T13:12:40.311Z,5.00
2023-01-17T13:13:40.333Z,5.08
2023-01-17T13:14:40.329Z,5.04
2023-01-17T13:15:40.338Z,5.08
2023-01-17T13:16:42.146Z,5.04
2023-01-17T13:17:40.385Z,5.15
2023-01-17T13:18:40.372Z,5.07